sensor_id;sensor_type;location;lat;lon;timestamp;temperature;humidity
74178;DHT22;62540;48.456;-4.456;2023-11-19T00:02:07;15.09;81.35
74178;DHT22;62540;48.456;-4.456;2023-11-19T00:04:36;15.12;81.45
74178;DHT22;62540;48.456;-4.456;2023-11-19T00:07:03;15.11;81.46
74178;DHT22;62540;48.456;-4.456;2023-11-19T00:09:30;15.14;81.44
74178;DHT22;62540;48.456;-4.456;2023-11-19T00:11:56;15.14;81.27
74178;DHT22;62540;48.456;-4.456;2023-11-19T00:14:22;15.09;81.39
74178;DHT22;62540;48.456;-4.456;2023-11-19T00:16:47;15.02;81.31
74178;DHT22;62540;48.456;-4.456;2023-11-19T00:19:12;15.05;81.32
74178;DHT22;62540;48.456;-4.456;2023-11-19T00:21:38;15.05;81.26
74178;DHT22;62540;48.456;-4.456;2023-11-19T00:24:03;15.06;81.20
74178;DHT22;62540;48.456;-4.456;2023-11-19T00:26:29;15.06;81.21
74178;DHT22;62540;48.456;-4.456;2023-11-19T00:28:55;15.11;81.27
74178;DHT22;62540;48.456;-4.456;2023-11-19T00:31:21;15.08;81.19
74178;DHT22;62540;48.456;-4.456;2023-11-19T00:33:46;15.12;81.21
74178;DHT22;62540;48.456;-4.456;2023-11-19T00:36:12;15.06;81.09
74178;DHT22;62540;48.456;-4.456;2023-11-19T00:38:38;15.05;81.15
74178;DHT22;62540;48.456;-4.456;2023-11-19T00:41:03;15.04;81.26
74178;DHT22;62540;48.456;-4.456;2023-11-19T00:43:29;15.04;81.34
74178;DHT22;62540;48.456;-4.456;2023-11-19T00:45:54;15.02;81.36
74178;DHT22;62540;48.456;-4.456;2023-11-19T00:48:20;15.05;81.36
74178;DHT22;62540;48.456;-4.456;2023-11-19T00:50:45;15.02;81.36
74178;DHT22;62540;48.456;-4.456;2023-11-19T00:53:11;14.99;81.49
74178;DHT22;62540;48.456;-4.456;2023-11-19T00:55:37;14.99;81.52
74178;DHT22;62540;48.456;-4.456;2023-11-19T00:58:02;15.02;81.51
74178;DHT22;62540;48.456;-4.456;2023-11-19T01:00:28;14.94;81.70
74178;DHT22;62540;48.456;-4.456;2023-11-19T01:02:54;14.99;81.73
74178;DHT22;62540;48.456;-4.456;2023-11-19T01:05:20;15.04;81.76
74178;DHT22;62540;48.456;-4.456;2023-11-19T01:07:49;15.02;81.67
74178;DHT22;62540;48.456;-4.456;2023-11-19T01:10:15;14.99;81.75
74178;DHT22;62540;48.456;-4.456;2023-11-19T01:12:44;15.02;81.80
74178;DHT22;62540;48.456;-4.456;2023-11-19T01:15:09;15.02;81.72
74178;DHT22;62540;48.456;-4.456;2023-11-19T01:17:36;15.02;81.62
74178;DHT22;62540;48.456;-4.456;2023-11-19T01:20:02;15.05;81.44
74178;DHT22;62540;48.456;-4.456;2023-11-19T01:22:31;14.98;81.39
74178;DHT22;62540;48.456;-4.456;2023-11-19T01:24:56;15.01;81.43
74178;DHT22;62540;48.456;-4.456;2023-11-19T01:27:23;14.95;81.43
74178;DHT22;62540;48.456;-4.456;2023-11-19T01:29:49;14.95;81.59
74178;DHT22;62540;48.456;-4.456;2023-11-19T01:32:14;14.98;81.60
74178;DHT22;62540;48.456;-4.456;2023-11-19T01:34:40;15.02;81.50
74178;DHT22;62540;48.456;-4.456;2023-11-19T01:37:06;15.01;81.45
74178;DHT22;62540;48.456;-4.456;2023-11-19T01:39:31;15.05;81.50
74178;DHT22;62540;48.456;-4.456;2023-11-19T01:41:57;15.02;81.41
74178;DHT22;62540;48.456;-4.456;2023-11-19T01:44:22;15.02;81.38
74178;DHT22;62540;48.456;-4.456;2023-11-19T01:46:48;15.02;81.24
74178;DHT22;62540;48.456;-4.456;2023-11-19T01:49:17;15.06;81.08
74178;DHT22;62540;48.456;-4.456;2023-11-19T01:51:43;15.02;81.04
74178;DHT22;62540;48.456;-4.456;2023-11-19T01:54:09;14.98;80.75
74178;DHT22;62540;48.456;-4.456;2023-11-19T01:56:35;15.01;80.99
74178;DHT22;62540;48.456;-4.456;2023-11-19T01:59:02;15.02;81.00
74178;DHT22;62540;48.456;-4.456;2023-11-19T02:01:29;15.02;81.04
74178;DHT22;62540;48.456;-4.456;2023-11-19T02:03:55;15.04;81.07
74178;DHT22;62540;48.456;-4.456;2023-11-19T02:06:21;15.04;80.74
74178;DHT22;62540;48.456;-4.456;2023-11-19T02:08:46;15.05;80.58
74178;DHT22;62540;48.456;-4.456;2023-11-19T02:11:12;15.09;80.50
74178;DHT22;62540;48.456;-4.456;2023-11-19T02:13:38;15.06;79.91
74178;DHT22;62540;48.456;-4.456;2023-11-19T02:16:04;15.05;80.15
74178;DHT22;62540;48.456;-4.456;2023-11-19T02:18:30;15.08;80.19
74178;DHT22;62540;48.456;-4.456;2023-11-19T02:20:59;14.99;79.42
74178;DHT22;62540;48.456;-4.456;2023-11-19T02:23:28;15.01;79.83
74178;DHT22;62540;48.456;-4.456;2023-11-19T02:26:05;14.98;79.50
74178;DHT22;62540;48.456;-4.456;2023-11-19T02:28:38;14.94;79.71
74178;DHT22;62540;48.456;-4.456;2023-11-19T02:31:03;14.95;80.08
74178;DHT22;62540;48.456;-4.456;2023-11-19T02:33:35;14.89;79.64
74178;DHT22;62540;48.456;-4.456;2023-11-19T02:36:01;14.87;79.72
74178;DHT22;62540;48.456;-4.456;2023-11-19T02:38:28;14.89;79.94
74178;DHT22;62540;48.456;-4.456;2023-11-19T02:40:54;14.85;79.55
74178;DHT22;62540;48.456;-4.456;2023-11-19T02:43:19;14.81;79.55
74178;DHT22;62540;48.456;-4.456;2023-11-19T02:45:45;14.83;79.69
74178;DHT22;62540;48.456;-4.456;2023-11-19T02:48:11;14.77;79.82
74178;DHT22;62540;48.456;-4.456;2023-11-19T02:50:36;14.78;79.94
74178;DHT22;62540;48.456;-4.456;2023-11-19T02:53:02;14.78;80.19
74178;DHT22;62540;48.456;-4.456;2023-11-19T02:55:28;14.81;80.25
74178;DHT22;62540;48.456;-4.456;2023-11-19T02:57:56;14.78;80.04
74178;DHT22;62540;48.456;-4.456;2023-11-19T03:00:24;14.83;80.21
74178;DHT22;62540;48.456;-4.456;2023-11-19T03:02:51;14.87;80.11
74178;DHT22;62540;48.456;-4.456;2023-11-19T03:05:39;14.89;79.82
74178;DHT22;62540;48.456;-4.456;2023-11-19T03:08:05;14.88;79.63
74178;DHT22;62540;48.456;-4.456;2023-11-19T03:10:31;14.84;79.51
74178;DHT22;62540;48.456;-4.456;2023-11-19T03:12:57;14.88;79.94
74178;DHT22;62540;48.456;-4.456;2023-11-19T03:15:22;14.91;79.77
74178;DHT22;62540;48.456;-4.456;2023-11-19T03:17:48;14.91;79.61
74178;DHT22;62540;48.456;-4.456;2023-11-19T03:20:13;14.91;79.63
74178;DHT22;62540;48.456;-4.456;2023-11-19T03:22:42;14.89;79.56
74178;DHT22;62540;48.456;-4.456;2023-11-19T03:25:08;14.89;79.47
74178;DHT22;62540;48.456;-4.456;2023-11-19T03:27:39;14.83;78.39
74178;DHT22;62540;48.456;-4.456;2023-11-19T03:30:07;14.83;79.00
74178;DHT22;62540;48.456;-4.456;2023-11-19T03:32:35;14.80;78.51
74178;DHT22;62540;48.456;-4.456;2023-11-19T03:35:01;14.87;79.03
74178;DHT22;62540;48.456;-4.456;2023-11-19T03:37:27;14.84;78.57
74178;DHT22;62540;48.456;-4.456;2023-11-19T03:39:54;14.81;78.46
74178;DHT22;62540;48.456;-4.456;2023-11-19T03:42:20;14.85;78.92
74178;DHT22;62540;48.456;-4.456;2023-11-19T03:44:46;14.88;78.83
74178;DHT22;62540;48.456;-4.456;2023-11-19T03:47:11;14.88;78.62
74178;DHT22;62540;48.456;-4.456;2023-11-19T03:49:37;14.88;78.52
74178;DHT22;62540;48.456;-4.456;2023-11-19T03:52:02;14.89;78.76
74178;DHT22;62540;48.456;-4.456;2023-11-19T03:54:28;14.94;78.92
74178;DHT22;62540;48.456;-4.456;2023-11-19T03:56:53;14.87;78.26
74178;DHT22;62540;48.456;-4.456;2023-11-19T03:59:18;14.88;78.14
74178;DHT22;62540;48.456;-4.456;2023-11-19T04:01:45;14.89;78.60
74178;DHT22;62540;48.456;-4.456;2023-11-19T04:04:11;14.94;78.47
74178;DHT22;62540;48.456;-4.456;2023-11-19T04:06:36;14.92;78.29
74178;DHT22;62540;48.456;-4.456;2023-11-19T04:09:02;14.91;78.15
74178;DHT22;62540;48.456;-4.456;2023-11-19T04:11:27;14.83;77.64
74178;DHT22;62540;48.456;-4.456;2023-11-19T04:13:53;14.75;77.78
74178;DHT22;62540;48.456;-4.456;2023-11-19T04:16:18;14.68;77.52
74178;DHT22;62540;48.456;-4.456;2023-11-19T04:18:44;14.70;78.15
74178;DHT22;62540;48.456;-4.456;2023-11-19T04:21:09;14.67;77.79
74178;DHT22;62540;48.456;-4.456;2023-11-19T04:23:35;14.70;78.08
74178;DHT22;62540;48.456;-4.456;2023-11-19T04:26:04;14.63;77.56
74178;DHT22;62540;48.456;-4.456;2023-11-19T04:28:30;14.64;77.75
74178;DHT22;62540;48.456;-4.456;2023-11-19T04:30:56;14.59;77.69
74178;DHT22;62540;48.456;-4.456;2023-11-19T04:33:21;14.56;77.86
74178;DHT22;62540;48.456;-4.456;2023-11-19T04:35:46;14.56;78.18
74178;DHT22;62540;48.456;-4.456;2023-11-19T04:38:12;14.53;78.19
74178;DHT22;62540;48.456;-4.456;2023-11-19T04:40:37;14.51;78.06
74178;DHT22;62540;48.456;-4.456;2023-11-19T04:43:03;14.50;78.14
74178;DHT22;62540;48.456;-4.456;2023-11-19T04:45:28;14.50;78.24
74178;DHT22;62540;48.456;-4.456;2023-11-19T04:47:54;14.51;78.20
74178;DHT22;62540;48.456;-4.456;2023-11-19T04:50:19;14.50;77.89
74178;DHT22;62540;48.456;-4.456;2023-11-19T04:52:44;14.46;77.36
74178;DHT22;62540;48.456;-4.456;2023-11-19T04:55:10;14.44;77.70
74178;DHT22;62540;48.456;-4.456;2023-11-19T04:57:37;14.34;77.34
74178;DHT22;62540;48.456;-4.456;2023-11-19T05:00:04;14.39;77.84
74178;DHT22;62540;48.456;-4.456;2023-11-19T05:02:30;14.36;77.58
74178;DHT22;62540;48.456;-4.456;2023-11-19T05:04:55;14.37;77.90
74178;DHT22;62540;48.456;-4.456;2023-11-19T05:07:21;14.37;77.67
74178;DHT22;62540;48.456;-4.456;2023-11-19T05:09:46;14.39;77.68
74178;DHT22;62540;48.456;-4.456;2023-11-19T05:12:11;14.40;77.79
74178;DHT22;62540;48.456;-4.456;2023-11-19T05:14:37;14.41;77.65
74178;DHT22;62540;48.456;-4.456;2023-11-19T05:17:03;14.40;77.14
74178;DHT22;62540;48.456;-4.456;2023-11-19T05:19:29;14.37;77.15
74178;DHT22;62540;48.456;-4.456;2023-11-19T05:21:54;14.30;77.27
74178;DHT22;62540;48.456;-4.456;2023-11-19T05:24:20;14.33;77.26
74178;DHT22;62540;48.456;-4.456;2023-11-19T05:26:45;14.36;77.62
74178;DHT22;62540;48.456;-4.456;2023-11-19T05:29:12;14.39;77.50
74178;DHT22;62540;48.456;-4.456;2023-11-19T05:31:37;14.37;77.25
74178;DHT22;62540;48.456;-4.456;2023-11-19T05:34:03;14.32;76.77
74178;DHT22;62540;48.456;-4.456;2023-11-19T05:36:28;14.29;76.88
74178;DHT22;62540;48.456;-4.456;2023-11-19T05:38:54;14.30;77.16
74178;DHT22;62540;48.456;-4.456;2023-11-19T05:41:20;14.25;77.09
74178;DHT22;62540;48.456;-4.456;2023-11-19T05:43:45;14.25;76.83
74178;DHT22;62540;48.456;-4.456;2023-11-19T05:46:11;14.25;76.97
74178;DHT22;62540;48.456;-4.456;2023-11-19T05:48:38;14.19;76.98
74178;DHT22;62540;48.456;-4.456;2023-11-19T05:51:04;14.19;77.42
74178;DHT22;62540;48.456;-4.456;2023-11-19T05:53:31;14.22;77.43
74178;DHT22;62540;48.456;-4.456;2023-11-19T05:55:56;14.22;77.31
74178;DHT22;62540;48.456;-4.456;2023-11-19T05:58:26;14.20;77.47
74178;DHT22;62540;48.456;-4.456;2023-11-19T06:00:53;14.25;77.60
74178;DHT22;62540;48.456;-4.456;2023-11-19T06:03:18;14.29;77.52
74178;DHT22;62540;48.456;-4.456;2023-11-19T06:05:45;14.27;77.29
74178;DHT22;62540;48.456;-4.456;2023-11-19T06:08:11;14.26;77.30
74178;DHT22;62540;48.456;-4.456;2023-11-19T06:10:40;14.26;77.48
74178;DHT22;62540;48.456;-4.456;2023-11-19T06:13:05;14.27;77.49
74178;DHT22;62540;48.456;-4.456;2023-11-19T06:15:32;14.32;77.41
74178;DHT22;62540;48.456;-4.456;2023-11-19T06:17:58;14.32;77.49
74178;DHT22;62540;48.456;-4.456;2023-11-19T06:20:32;14.33;77.49
74178;DHT22;62540;48.456;-4.456;2023-11-19T06:22:57;14.27;77.38
74178;DHT22;62540;48.456;-4.456;2023-11-19T06:25:23;14.33;77.27
74178;DHT22;62540;48.456;-4.456;2023-11-19T06:27:52;14.32;77.29
74178;DHT22;62540;48.456;-4.456;2023-11-19T06:30:18;14.33;77.37
74178;DHT22;62540;48.456;-4.456;2023-11-19T06:32:44;14.29;77.10
74178;DHT22;62540;48.456;-4.456;2023-11-19T06:35:09;14.34;77.33
74178;DHT22;62540;48.456;-4.456;2023-11-19T06:37:35;14.32;77.28
74178;DHT22;62540;48.456;-4.456;2023-11-19T06:40:01;14.33;77.38
74178;DHT22;62540;48.456;-4.456;2023-11-19T06:42:27;14.33;77.54
74178;DHT22;62540;48.456;-4.456;2023-11-19T06:44:52;14.34;77.34
74178;DHT22;62540;48.456;-4.456;2023-11-19T06:47:18;14.34;77.25
74178;DHT22;62540;48.456;-4.456;2023-11-19T06:49:44;14.33;76.99
74178;DHT22;62540;48.456;-4.456;2023-11-19T06:52:09;14.34;77.06
74178;DHT22;62540;48.456;-4.456;2023-11-19T06:54:35;14.34;77.22
74178;DHT22;62540;48.456;-4.456;2023-11-19T06:57:00;14.33;77.11
74178;DHT22;62540;48.456;-4.456;2023-11-19T06:59:26;14.34;77.13
74178;DHT22;62540;48.456;-4.456;2023-11-19T07:01:51;14.34;76.84
74178;DHT22;62540;48.456;-4.456;2023-11-19T07:04:17;14.32;77.02
74178;DHT22;62540;48.456;-4.456;2023-11-19T07:06:42;14.36;76.94
74178;DHT22;62540;48.456;-4.456;2023-11-19T07:09:09;14.37;76.89
74178;DHT22;62540;48.456;-4.456;2023-11-19T07:11:38;14.39;76.93
74178;DHT22;62540;48.456;-4.456;2023-11-19T07:14:05;14.39;76.93
74178;DHT22;62540;48.456;-4.456;2023-11-19T07:16:32;14.44;77.08
74178;DHT22;62540;48.456;-4.456;2023-11-19T07:19:00;14.47;77.06
74178;DHT22;62540;48.456;-4.456;2023-11-19T07:21:26;14.48;77.15
74178;DHT22;62540;48.456;-4.456;2023-11-19T07:23:54;14.53;77.16
74178;DHT22;62540;48.456;-4.456;2023-11-19T07:26:19;14.56;76.86
74178;DHT22;62540;48.456;-4.456;2023-11-19T07:28:44;14.51;76.60
74178;DHT22;62540;48.456;-4.456;2023-11-19T07:31:10;14.44;76.15
74178;DHT22;62540;48.456;-4.456;2023-11-19T07:33:36;14.43;76.66
74178;DHT22;62540;48.456;-4.456;2023-11-19T07:36:02;14.44;76.78
74178;DHT22;62540;48.456;-4.456;2023-11-19T07:38:27;14.44;76.62
74178;DHT22;62540;48.456;-4.456;2023-11-19T07:40:52;14.39;76.55
74178;DHT22;62540;48.456;-4.456;2023-11-19T07:43:18;14.36;76.71
74178;DHT22;62540;48.456;-4.456;2023-11-19T07:45:43;14.36;76.51
74178;DHT22;62540;48.456;-4.456;2023-11-19T07:48:10;14.40;76.77
74178;DHT22;62540;48.456;-4.456;2023-11-19T07:50:36;14.41;76.94
74178;DHT22;62540;48.456;-4.456;2023-11-19T07:53:01;14.41;76.90
74178;DHT22;62540;48.456;-4.456;2023-11-19T07:55:29;14.44;76.91
74178;DHT22;62540;48.456;-4.456;2023-11-19T07:57:54;14.47;77.07
74178;DHT22;62540;48.456;-4.456;2023-11-19T08:00:20;14.43;77.22
74178;DHT22;62540;48.456;-4.456;2023-11-19T08:02:45;14.44;77.22
74178;DHT22;62540;48.456;-4.456;2023-11-19T08:05:11;14.50;77.33
74178;DHT22;62540;48.456;-4.456;2023-11-19T08:07:36;14.51;77.02
74178;DHT22;62540;48.456;-4.456;2023-11-19T08:10:02;14.50;77.18
74178;DHT22;62540;48.456;-4.456;2023-11-19T08:12:27;14.53;76.71
74178;DHT22;62540;48.456;-4.456;2023-11-19T08:14:53;14.56;76.80
74178;DHT22;62540;48.456;-4.456;2023-11-19T08:17:18;14.60;76.93
74178;DHT22;62540;48.456;-4.456;2023-11-19T08:19:44;14.63;76.88
74178;DHT22;62540;48.456;-4.456;2023-11-19T08:22:09;14.70;76.99
74178;DHT22;62540;48.456;-4.456;2023-11-19T08:24:35;14.73;77.11
74178;DHT22;62540;48.456;-4.456;2023-11-19T08:27:00;14.75;76.80
74178;DHT22;62540;48.456;-4.456;2023-11-19T08:29:26;14.73;76.83
74178;DHT22;62540;48.456;-4.456;2023-11-19T08:31:52;14.71;76.30
74178;DHT22;62540;48.456;-4.456;2023-11-19T08:34:18;14.64;76.50
74178;DHT22;62540;48.456;-4.456;2023-11-19T08:36:44;14.66;76.72
74178;DHT22;62540;48.456;-4.456;2023-11-19T08:39:09;14.73;76.62
74178;DHT22;62540;48.456;-4.456;2023-11-19T08:41:34;14.74;76.84
74178;DHT22;62540;48.456;-4.456;2023-11-19T08:44:00;14.78;76.95
74178;DHT22;62540;48.456;-4.456;2023-11-19T08:46:25;14.85;76.39
74178;DHT22;62540;48.456;-4.456;2023-11-19T08:48:51;14.92;76.68
74178;DHT22;62540;48.456;-4.456;2023-11-19T08:51:17;15.02;75.85
74178;DHT22;62540;48.456;-4.456;2023-11-19T08:53:42;15.09;74.96
74178;DHT22;62540;48.456;-4.456;2023-11-19T08:56:07;15.12;74.83
74178;DHT22;62540;48.456;-4.456;2023-11-19T08:58:33;15.25;74.15
74178;DHT22;62540;48.456;-4.456;2023-11-19T09:00:58;15.32;74.06
74178;DHT22;62540;48.456;-4.456;2023-11-19T09:03:24;15.39;73.44
74178;DHT22;62540;48.456;-4.456;2023-11-19T09:05:52;15.42;72.96
74178;DHT22;62540;48.456;-4.456;2023-11-19T09:08:17;15.49;72.92
74178;DHT22;62540;48.456;-4.456;2023-11-19T09:10:42;15.59;73.28
74178;DHT22;62540;48.456;-4.456;2023-11-19T09:13:08;15.67;73.05
74178;DHT22;62540;48.456;-4.456;2023-11-19T09:15:33;15.67;71.29
74178;DHT22;62540;48.456;-4.456;2023-11-19T09:17:59;15.71;72.10
74178;DHT22;62540;48.456;-4.456;2023-11-19T09:20:24;15.82;71.33
74178;DHT22;62540;48.456;-4.456;2023-11-19T09:22:49;15.93;72.76
74178;DHT22;62540;48.456;-4.456;2023-11-19T09:25:16;16.10;72.71
74178;DHT22;62540;48.456;-4.456;2023-11-19T09:27:43;16.21;71.44
74178;DHT22;62540;48.456;-4.456;2023-11-19T09:30:09;16.29;72.51
74178;DHT22;62540;48.456;-4.456;2023-11-19T09:32:34;16.33;71.40
74178;DHT22;62540;48.456;-4.456;2023-11-19T09:35:00;16.36;70.09
74178;DHT22;62540;48.456;-4.456;2023-11-19T09:37:25;16.31;70.32
74178;DHT22;62540;48.456;-4.456;2023-11-19T09:39:51;16.21;69.01
74178;DHT22;62540;48.456;-4.456;2023-11-19T09:42:18;16.14;69.71
74178;DHT22;62540;48.456;-4.456;2023-11-19T09:44:44;16.17;70.62
74178;DHT22;62540;48.456;-4.456;2023-11-19T09:47:11;16.21;71.21
74178;DHT22;62540;48.456;-4.456;2023-11-19T09:49:39;16.22;70.43
74178;DHT22;62540;48.456;-4.456;2023-11-19T09:52:05;16.26;70.22
74178;DHT22;62540;48.456;-4.456;2023-11-19T09:54:30;16.26;70.21
74178;DHT22;62540;48.456;-4.456;2023-11-19T09:56:58;16.35;70.36
74178;DHT22;62540;48.456;-4.456;2023-11-19T09:59:29;16.42;70.51
74178;DHT22;62540;48.456;-4.456;2023-11-19T10:01:56;16.56;70.66
74178;DHT22;62540;48.456;-4.456;2023-11-19T10:04:22;16.65;69.32
74178;DHT22;62540;48.456;-4.456;2023-11-19T10:06:50;16.75;69.60
74178;DHT22;62540;48.456;-4.456;2023-11-19T10:09:16;16.75;68.23
74178;DHT22;62540;48.456;-4.456;2023-11-19T10:11:41;16.84;67.84
74178;DHT22;62540;48.456;-4.456;2023-11-19T10:14:07;16.99;68.46
74178;DHT22;62540;48.456;-4.456;2023-11-19T10:16:34;17.09;67.31
74178;DHT22;62540;48.456;-4.456;2023-11-19T10:19:00;17.19;67.44
74178;DHT22;62540;48.456;-4.456;2023-11-19T10:21:25;17.11;66.69
74178;DHT22;62540;48.456;-4.456;2023-11-19T10:23:54;17.13;67.83
74178;DHT22;62540;48.456;-4.456;2023-11-19T10:26:22;17.20;68.13
74178;DHT22;62540;48.456;-4.456;2023-11-19T10:28:48;17.24;68.03
74178;DHT22;62540;48.456;-4.456;2023-11-19T10:31:14;17.26;66.98
74178;DHT22;62540;48.456;-4.456;2023-11-19T10:33:40;17.10;67.30
74178;DHT22;62540;48.456;-4.456;2023-11-19T10:36:06;17.04;67.62
74178;DHT22;62540;48.456;-4.456;2023-11-19T10:38:32;16.97;67.34
74178;DHT22;62540;48.456;-4.456;2023-11-19T10:40:58;16.86;67.04
74178;DHT22;62540;48.456;-4.456;2023-11-19T10:43:24;16.86;67.96
74178;DHT22;62540;48.456;-4.456;2023-11-19T10:45:50;16.83;67.53
74178;DHT22;62540;48.456;-4.456;2023-11-19T10:48:15;16.69;66.75
74178;DHT22;62540;48.456;-4.456;2023-11-19T10:50:43;16.72;67.09
74178;DHT22;62540;48.456;-4.456;2023-11-19T10:53:10;16.76;67.76
74178;DHT22;62540;48.456;-4.456;2023-11-19T10:55:37;16.80;67.52
74178;DHT22;62540;48.456;-4.456;2023-11-19T10:58:07;16.84;67.57
74178;DHT22;62540;48.456;-4.456;2023-11-19T11:00:56;16.86;67.55
74178;DHT22;62540;48.456;-4.456;2023-11-19T11:03:24;16.82;67.17
74178;DHT22;62540;48.456;-4.456;2023-11-19T11:05:52;16.90;67.96
74178;DHT22;62540;48.456;-4.456;2023-11-19T11:08:19;16.96;67.25
74178;DHT22;62540;48.456;-4.456;2023-11-19T11:10:53;17.02;67.56
74178;DHT22;62540;48.456;-4.456;2023-11-19T11:13:22;16.93;67.10
74178;DHT22;62540;48.456;-4.456;2023-11-19T11:15:48;16.99;67.66
74178;DHT22;62540;48.456;-4.456;2023-11-19T11:18:14;16.89;67.23
74178;DHT22;62540;48.456;-4.456;2023-11-19T11:20:40;16.99;67.63
74178;DHT22;62540;48.456;-4.456;2023-11-19T11:23:25;17.00;67.15
74178;DHT22;62540;48.456;-4.456;2023-11-19T11:28:43;16.93;67.78
74178;DHT22;62540;48.456;-4.456;2023-11-19T11:36:27;16.84;68.17
74178;DHT22;62540;48.456;-4.456;2023-11-19T11:38:58;16.83;68.46
74178;DHT22;62540;48.456;-4.456;2023-11-19T11:41:25;16.87;68.43
74178;DHT22;62540;48.456;-4.456;2023-11-19T11:43:51;16.87;68.03
74178;DHT22;62540;48.456;-4.456;2023-11-19T11:49:06;16.80;68.63
74178;DHT22;62540;48.456;-4.456;2023-11-19T11:54:10;16.66;68.41
74178;DHT22;62540;48.456;-4.456;2023-11-19T11:56:39;16.63;68.77
74178;DHT22;62540;48.456;-4.456;2023-11-19T11:59:18;16.66;68.79
74178;DHT22;62540;48.456;-4.456;2023-11-19T12:02:00;16.56;68.53
74178;DHT22;62540;48.456;-4.456;2023-11-19T12:04:26;16.63;69.05
74178;DHT22;62540;48.456;-4.456;2023-11-19T12:07:06;16.65;68.92
74178;DHT22;62540;48.456;-4.456;2023-11-19T12:09:33;16.55;68.39
74178;DHT22;62540;48.456;-4.456;2023-11-19T12:20:04;16.63;68.58
74178;DHT22;62540;48.456;-4.456;2023-11-19T12:22:31;16.63;69.01
74178;DHT22;62540;48.456;-4.456;2023-11-19T12:24:56;16.73;69.74
74178;DHT22;62540;48.456;-4.456;2023-11-19T12:27:22;16.77;69.36
74178;DHT22;62540;48.456;-4.456;2023-11-19T12:29:48;16.83;69.61
74178;DHT22;62540;48.456;-4.456;2023-11-19T12:32:14;16.82;69.12
74178;DHT22;62540;48.456;-4.456;2023-11-19T12:34:39;16.76;69.53
74178;DHT22;62540;48.456;-4.456;2023-11-19T12:37:05;16.68;69.33
74178;DHT22;62540;48.456;-4.456;2023-11-19T12:39:31;16.72;70.05
74178;DHT22;62540;48.456;-4.456;2023-11-19T12:41:56;16.94;69.94
74178;DHT22;62540;48.456;-4.456;2023-11-19T12:44:25;17.13;69.69
74178;DHT22;62540;48.456;-4.456;2023-11-19T12:47:04;17.19;68.89
74178;DHT22;62540;48.456;-4.456;2023-11-19T12:49:30;17.19;68.24
74178;DHT22;62540;48.456;-4.456;2023-11-19T12:51:55;17.31;68.43
74178;DHT22;62540;48.456;-4.456;2023-11-19T12:54:35;17.32;66.96
74178;DHT22;62540;48.456;-4.456;2023-11-19T12:57:00;17.38;67.44
74178;DHT22;62540;48.456;-4.456;2023-11-19T12:59:26;17.44;66.35
74178;DHT22;62540;48.456;-4.456;2023-11-19T13:01:58;17.34;65.45
74178;DHT22;62540;48.456;-4.456;2023-11-19T13:04:28;17.28;66.52
74178;DHT22;62540;48.456;-4.456;2023-11-19T13:06:56;17.24;67.08
74178;DHT22;62540;48.456;-4.456;2023-11-19T13:09:26;17.11;67.69
74178;DHT22;62540;48.456;-4.456;2023-11-19T13:11:53;17.09;68.38
74178;DHT22;62540;48.456;-4.456;2023-11-19T13:14:19;17.10;68.85
74178;DHT22;62540;48.456;-4.456;2023-11-19T13:16:45;17.03;68.33
74178;DHT22;62540;48.456;-4.456;2023-11-19T13:19:15;16.96;68.21
74178;DHT22;62540;48.456;-4.456;2023-11-19T13:21:41;16.91;68.64
74178;DHT22;62540;48.456;-4.456;2023-11-19T13:24:07;16.83;68.79
74178;DHT22;62540;48.456;-4.456;2023-11-19T13:26:33;16.79;68.69
74178;DHT22;62540;48.456;-4.456;2023-11-19T13:28:58;16.79;68.32
74178;DHT22;62540;48.456;-4.456;2023-11-19T13:31:24;16.82;68.25
74178;DHT22;62540;48.456;-4.456;2023-11-19T13:33:50;16.83;68.70
74178;DHT22;62540;48.456;-4.456;2023-11-19T13:36:16;16.72;68.50
74178;DHT22;62540;48.456;-4.456;2023-11-19T13:38:42;16.59;69.05
74178;DHT22;62540;48.456;-4.456;2023-11-19T13:41:09;16.55;69.57
74178;DHT22;62540;48.456;-4.456;2023-11-19T13:43:36;16.56;69.81
74178;DHT22;62540;48.456;-4.456;2023-11-19T13:46:02;16.53;70.03
74178;DHT22;62540;48.456;-4.456;2023-11-19T13:48:27;16.52;69.93
74178;DHT22;62540;48.456;-4.456;2023-11-19T13:50:55;16.45;69.64
74178;DHT22;62540;48.456;-4.456;2023-11-19T13:53:21;16.40;69.25
74178;DHT22;62540;48.456;-4.456;2023-11-19T13:55:46;16.38;68.88
74178;DHT22;62540;48.456;-4.456;2023-11-19T13:58:13;16.38;69.35
74178;DHT22;62540;48.456;-4.456;2023-11-19T14:00:38;16.44;69.28
74178;DHT22;62540;48.456;-4.456;2023-11-19T14:03:04;16.49;69.38
74178;DHT22;62540;48.456;-4.456;2023-11-19T14:05:30;16.36;69.32
74178;DHT22;62540;48.456;-4.456;2023-11-19T14:07:55;16.36;69.52
74178;DHT22;62540;48.456;-4.456;2023-11-19T14:10:22;16.36;69.57
74178;DHT22;62540;48.456;-4.456;2023-11-19T14:12:48;16.47;69.88
74178;DHT22;62540;48.456;-4.456;2023-11-19T14:15:15;16.52;69.54
74178;DHT22;62540;48.456;-4.456;2023-11-19T14:17:43;16.56;69.73
74178;DHT22;62540;48.456;-4.456;2023-11-19T14:20:09;16.59;69.65
74178;DHT22;62540;48.456;-4.456;2023-11-19T14:22:44;16.59;69.63
74178;DHT22;62540;48.456;-4.456;2023-11-19T14:25:10;16.56;69.52
74178;DHT22;62540;48.456;-4.456;2023-11-19T14:27:39;16.42;69.51
74178;DHT22;62540;48.456;-4.456;2023-11-19T14:30:09;16.36;70.01
74178;DHT22;62540;48.456;-4.456;2023-11-19T14:32:37;16.33;70.11
74178;DHT22;62540;48.456;-4.456;2023-11-19T14:35:03;16.35;70.32
74178;DHT22;62540;48.456;-4.456;2023-11-19T14:37:29;16.41;70.37
74178;DHT22;62540;48.456;-4.456;2023-11-19T14:39:56;16.42;70.36
74178;DHT22;62540;48.456;-4.456;2023-11-19T14:42:23;16.41;69.97
74178;DHT22;62540;48.456;-4.456;2023-11-19T14:44:48;16.38;70.07
74178;DHT22;62540;48.456;-4.456;2023-11-19T14:47:14;16.41;70.03
74178;DHT22;62540;48.456;-4.456;2023-11-19T14:49:39;16.45;70.10
74178;DHT22;62540;48.456;-4.456;2023-11-19T14:52:05;16.48;69.83
74178;DHT22;62540;48.456;-4.456;2023-11-19T14:54:30;16.49;69.94
74178;DHT22;62540;48.456;-4.456;2023-11-19T14:56:56;16.49;69.67
74178;DHT22;62540;48.456;-4.456;2023-11-19T14:59:21;16.47;69.75
74178;DHT22;62540;48.456;-4.456;2023-11-19T15:01:47;16.47;69.25
74178;DHT22;62540;48.456;-4.456;2023-11-19T15:04:12;16.48;69.67
74178;DHT22;62540;48.456;-4.456;2023-11-19T15:06:38;16.44;69.66
74178;DHT22;62540;48.456;-4.456;2023-11-19T15:09:04;16.35;69.51
74178;DHT22;62540;48.456;-4.456;2023-11-19T15:11:30;16.29;69.82
74178;DHT22;62540;48.456;-4.456;2023-11-19T15:13:55;16.20;70.17
74178;DHT22;62540;48.456;-4.456;2023-11-19T15:16:21;16.17;70.57
74178;DHT22;62540;48.456;-4.456;2023-11-19T15:18:57;16.11;70.23
74178;DHT22;62540;48.456;-4.456;2023-11-19T15:21:28;16.05;70.40
74178;DHT22;62540;48.456;-4.456;2023-11-19T15:23:55;16.05;70.53
74178;DHT22;62540;48.456;-4.456;2023-11-19T15:26:20;16.01;70.77
74178;DHT22;62540;48.456;-4.456;2023-11-19T15:28:46;16.04;71.05
74178;DHT22;62540;48.456;-4.456;2023-11-19T15:31:11;16.01;71.10
74178;DHT22;62540;48.456;-4.456;2023-11-19T15:33:38;16.04;70.96